Latest Weather Observations for Thredbo Top Station

IDN60801

Issued at 5:12 pm EST Saturday 22 June 2024 (issued every 10 minutes, with the page automatically refreshed every 10 minutes)

About weather observations | Map of weather stations | Latest weather observations for NSW | Other Formats
Station Details ID: 071032 Name: THREDBO AWS Lat: -36.49 Lon: 148.29 Height: 1957.0 m
Data from the previous 72 hours. | See also: Recent months at Thredbo Top Station
Date/Time
EST
Temp
°C
App
Temp
°C
Dew
Point
°C
Rel
Hum
%
Delta-T
°C
Wind Press
QNH
hPa
Press
MSL
hPa
Rain since
9am
mm
Dir  Spd
km/h
Gust
km/h
Spd
kts
Gust
kts
22/05:00pm -2.8 -6.5 -2.8 100 0.0 NNE 7 9 4 5 1025.9 1028.5 0.0
22/04:30pm -2.7 -6.8 -2.7 100 0.0 NNE 9 13 5 7 1025.8 1028.4 0.0
22/04:00pm -2.2 -5.6 -2.2 100 0.0 ENE 6 11 3 6 1026.0 1028.7 0.0
22/03:30pm -2.0 -5.0 -2.0 100 0.0 N 4 7 2 4 1025.9 1028.5 0.0
22/03:00pm -2.1 -5.7 -2.1 100 0.0 NNE 7 11 4 6 1025.7 1028.3 0.0
22/02:30pm -1.9 -5.3 -1.9 100 0.0 NNE 6 9 3 5 1025.8 1028.4 0.0
22/02:00pm -1.7 -5.2 -1.7 100 0.0 ENE 7 15 4 8 1026.0 1028.7 0.0
22/01:30pm -1.4 -4.7 -1.4 100 0.0 E 6 9 3 5 1026.2 1028.8 0.0
22/01:00pm -1.5 -5.8 -1.5 100 0.0 NE 11 15 6 8 1026.3 1028.9 0.0
22/12:30pm -1.4 -4.7 -1.5 99 0.0 NNE 6 9 3 5 1026.4 1029.0 0.0
22/12:00pm -1.1 -4.6 -1.1 100 0.0 NE 7 13 4 7 1026.7 1029.3 0.0
22/11:30am -1.3 -5.2 -1.4 99 0.0 ESE 9 19 5 10 1026.9 1029.5 0.0
22/11:00am -1.8 -5.2 -1.8 100 0.0 NE 6 11 3 6 1027.1 1029.8 0.0
22/10:30am -1.4 -4.7 -1.4 100 0.0 E 6 13 3 7 1027.1 1029.8 0.0
22/10:00am -1.9 -5.3 -1.9 100 0.0 E 6 15 3 8 1027.1 1029.8 0.0
22/09:30am -2.3 -5.7 -2.3 100 0.0 ENE 6 11 3 6 1026.7 1029.3 0.0
22/09:00am -3.4 -5.8 -3.4 100 0.0 CALM 0 0 0 0 1026.4 1029.0 0.8
22/08:30am -3.4 -5.8 -3.4 100 0.0 CALM 0 0 0 0 1026.0 1028.7 0.8
22/08:00am -5.6 -8.6 -5.6 100 0.0 ENE 2 9 1 5 1025.8 1028.4 0.8
22/07:30am -5.8 -9.3 -5.8 100 0.0 S 4 7 2 4 1025.6 1028.2 0.8
22/07:00am -5.9 -9.7 -6.0 99 -0.2 S 6 9 3 5 1025.1 1027.6 0.8
22/06:30am -5.5 -9.3 -5.5 100 0.0 SE 6 9 3 5 1024.6 1027.1 0.8
22/06:00am -6.7 -9.5 -6.7 100 0.0 CALM 0 0 0 0 1024.5 1027.0 0.8
22/05:30am -6.0 -8.7 -6.0 100 0.0 CALM 0 6 0 3 1024.2 1026.8 0.8
22/05:00am -5.2 -7.8 -5.2 100 0.0 CALM 0 0 0 0 1024.1 1026.6 0.8
22/04:30am -4.3 -7.2 -4.3 100 0.0 N 2 7 1 4 1024.2 1026.8 0.8
22/04:00am -3.9 -7.7 -3.9 100 0.0 SSE 7 13 4 7 1024.0 1026.5 0.8
22/03:30am -3.9 -8.1 -3.9 100 0.0 SSE 9 15 5 8 1023.7 1026.2 0.8
22/03:00am -3.7 -8.3 -3.7 100 0.0 SSE 11 15 6 8 1023.7 1026.2 0.8
22/02:30am -3.4 -8.7 -3.4 100 0.0 S 15 19 8 10 1023.4 1025.9 0.8
22/02:00am -3.5 -8.8 -3.5 100 0.0 S 15 22 8 12 1023.3 1025.7 0.8
22/01:30am -3.6 -8.1 -3.6 100 0.0 S 11 19 6 10 1022.9 1025.4 0.8
22/01:00am -3.6 -8.9 -3.6 100 0.0 S 15 22 8 12 1022.9 1025.4 0.8
22/12:30am -3.5 -8.8 -3.5 100 0.0 S 15 22 8 12 1022.9 1025.4 0.8
22/12:00am -3.3 -7.8 -3.3 100 0.0 SSE 11 15 6 8 1022.9 1025.4 0.8
 
Date/Time
EST
Temp
°C
App
Temp
°C
Dew
Point
°C
Rel
Hum
%
Delta-T
°C
Wind Press
QNH
hPa
Press
MSL
hPa
Rain since
9am
mm
Dir  Spd
km/h
Gust
km/h
Spd
kts
Gust
kts
21/11:30pm -3.1 -8.3 -3.1 100 0.0 S 15 20 8 11 1022.9 1025.4 0.8
21/11:00pm -3.2 -9.2 -3.2 100 0.0 SSE 19 26 10 14 1023.0 1025.5 0.8
21/10:30pm -3.3 -8.9 -3.3 100 0.0 SSE 17 24 9 13 1022.9 1025.4 0.8
21/10:00pm -3.4 -8.7 -3.4 100 0.0 SSE 15 22 8 12 1022.8 1025.2 0.8
21/09:30pm -3.1 -9.3 -3.1 100 0.0 S 20 24 11 13 1022.4 1024.8 0.8
21/09:00pm -2.6 -9.5 -2.6 100 0.0 S 24 32 13 17 1022.0 1024.5 0.8
21/08:30pm -2.5 -9.0 -2.5 100 0.0 S 22 32 12 17 1021.9 1024.3 0.8
21/08:00pm -2.5 -9.0 -2.5 100 0.0 SSE 22 30 12 16 1021.9 1024.3 0.8
21/07:30pm -2.3 -10.3 -2.3 100 0.0 S 30 39 16 21 1021.1 1023.5 0.8
21/07:00pm -2.4 -10.4 -2.4 100 0.0 S 30 39 16 21 1021.0 1023.3 0.8
21/06:30pm -2.7 -9.2 -2.7 100 0.0 S 22 35 12 19 1020.7 1023.1 0.8
21/06:00pm -2.9 -9.1 -2.9 100 0.0 SSE 20 32 11 17 1020.5 1022.8 0.8
21/05:30pm -3.1 -9.3 -3.1 100 0.0 SSE 20 41 11 22 1020.1 1022.4 0.8
21/05:00pm -3.0 -9.6 -3.0 100 0.0 SSE 22 35 12 19 1020.0 1022.3 0.8
21/04:30pm -2.3 -9.9 -2.3 100 0.0 S 28 39 15 21 1019.4 1021.7 0.8
21/04:00pm -2.1 -8.9 -2.1 100 0.0 S 24 35 13 19 1019.1 1021.4 0.8
21/03:30pm -2.0 -8.8 -2.0 100 0.0 S 24 30 13 16 1018.8 1021.0 0.6
21/03:00pm -1.9 -7.9 -1.9 100 0.0 S 20 28 11 15 1018.7 1020.9 0.6
21/02:30pm -1.8 -7.3 -1.8 100 0.0 SSE 17 20 9 11 1018.5 1020.8 0.2
21/02:00pm -1.4 -6.4 -1.4 100 0.0 S 15 19 8 10 1018.3 1020.5 0.0
21/01:30pm -1.2 -6.6 -1.2 100 0.0 SSE 17 19 9 10 1018.2 1020.4 0.0
21/01:00pm -1.0 -5.2 -1.0 100 0.0 SSE 11 15 6 8 1018.0 1020.3 0.0
21/12:30pm -1.1 -5.3 -1.1 100 0.0 SSE 11 19 6 10 1018.2 1020.4 0.0
21/12:00pm -1.1 -6.1 -1.1 100 0.0 SSE 15 19 8 10 1018.2 1020.4 0.0
21/11:30am -1.4 -6.4 -1.4 100 0.0 SSE 15 20 8 11 1018.2 1020.4 0.0
21/11:00am -1.4 -5.7 -1.7 98 0.0 SSE 11 17 6 9 1018.3 1020.5 0.0
21/10:30am -1.7 -6.1 -2.3 96 0.1 SE 11 20 6 11 1018.3 1020.5 0.0
21/10:00am -2.1 -6.1 -2.1 100 0.0 SE 9 17 5 9 1018.0 1020.3 0.0
21/09:30am -2.7 -6.4 -2.7 100 0.0 SE 7 13 4 7 1017.9 1020.1 0.0
21/09:00am -2.9 -7.4 -2.9 100 0.0 SSE 11 20 6 11 1017.6 1019.8 0.0
21/08:30am -3.5 -7.7 -3.5 100 0.0 SSE 9 19 5 10 1017.3 1019.5 0.0
21/08:00am -4.6 -7.4 -7.4 81 0.7 CALM 0 4 0 2 1017.0 1019.1 0.0
21/07:30am -3.8 -7.9 -8.5 70 1.3 SSW 6 9 3 5 1016.7 1018.9 0.0
21/07:00am -3.6 -7.6 -7.2 76 1.0 WSW 6 6 3 3 1016.4 1018.5 0.0
21/06:30am -4.3 -8.3 -7.7 77 0.9 SW 6 9 3 5 1015.9 1018.0 0.0
21/06:00am -4.6 -9.0 -5.6 93 0.1 SW 9 11 5 6 1015.4 1017.5 0.0
21/05:30am -4.9 -8.5 -7.5 82 0.6 SW 4 6 2 3 1015.1 1017.2 0.0
21/05:00am -4.4 -8.1 -4.7 98 -0.1 NW 6 11 3 6 1015.0 1017.1 0.0
21/04:30am -3.6 -6.9 -4.1 96 0.0 WSW 4 11 2 6 1015.0 1017.1 0.0
21/04:00am -3.3 -7.9 -4.4 92 0.2 W 11 17 6 9 1014.8 1016.8 0.0
21/03:30am -5.0 -9.5 -6.4 90 0.2 NW 9 11 5 6 1014.8 1016.8 0.0
21/03:00am -5.1 -9.4 -9.2 73 1.0 NW 7 9 4 5 1014.7 1016.7 0.0
21/02:30am -5.2 -9.8 -8.1 80 0.7 NW 9 11 5 6 1014.4 1016.5 0.0
21/02:00am -5.0 -9.2 -7.9 80 0.7 NW 7 9 4 5 1014.3 1016.3 0.0
21/01:30am -4.3 -8.3 -7.2 80 0.8 NW 6 7 3 4 - - 0.0
21/01:00am -3.5 -6.6 -6.4 80 0.8 NNW 2 4 1 2 1014.3 1016.3 0.0
21/12:30am -2.5 -5.5 -5.1 82 0.8 N 2 4 1 2 1014.4 1016.5 0.0
21/12:00am -2.6 -6.3 -4.6 86 0.6 NW 6 9 3 5 1014.5 1016.6 0.0
 
Date/Time
EST
Temp
°C
App
Temp
°C
Dew
Point
°C
Rel
Hum
%
Delta-T
°C
Wind Press
QNH
hPa
Press
MSL
hPa
Rain since
9am
mm
Dir  Spd
km/h
Gust
km/h
Spd
kts
Gust
kts
20/11:30pm -3.6 -8.5 -3.6 100 0.0 NNW 13 17 7 9 1014.8 1016.8 0.0
20/11:00pm -3.0 -7.5 -3.3 98 0.0 NW 11 15 6 8 1014.9 1017.0 0.0
20/10:30pm -3.1 -8.3 -3.1 100 0.0 NW 15 20 8 11 1014.9 1017.0 0.0
20/10:00pm -2.9 -9.5 -2.9 100 0.0 WNW 22 28 12 15 1014.9 1017.0 0.0
20/09:30pm -2.9 -10.6 -2.9 100 0.0 NW 28 37 15 20 1014.9 1017.0 0.0
20/09:00pm -2.6 -11.1 -3.7 92 0.3 WNW 32 39 17 21 1014.5 1016.6 0.0
20/08:30pm -2.0 -8.6 -3.4 90 0.4 NW 22 30 12 16 1014.9 1017.0 0.0
20/08:00pm -2.3 -9.7 -3.6 91 0.4 NW 26 33 14 18 1015.0 1017.1 0.0
20/07:30pm -2.5 -9.7 -5.1 82 0.8 NW 24 32 13 17 1015.0 1017.1 0.0
20/07:00pm -2.9 -8.9 -6.2 78 1.0 WNW 17 24 9 13 1015.1 1017.2 0.0
20/06:30pm -2.3 -8.2 -6.1 75 1.2 W 17 20 9 11 1014.7 1016.7 0.0
20/06:00pm -2.9 -9.2 -6.0 79 0.9 W 19 22 10 12 1014.4 1016.5 0.0
20/05:30pm -2.6 -9.0 -6.4 75 1.2 W 19 22 10 12 1014.3 1016.3 0.0
20/05:00pm -2.7 -8.4 -7.0 72 1.3 W 15 19 8 10 - - 0.0
20/04:30pm -2.6 -9.5 -6.4 75 1.2 NW 22 28 12 15 - - 0.0
20/04:00pm -2.0 -8.9 -5.7 76 1.2 NW 22 26 12 14 - - 0.0
20/03:30pm -1.4 -8.2 -5.2 75 1.3 WNW 22 26 12 14 - - 0.0
20/03:00pm -1.7 -8.8 -4.4 82 0.9 WNW 24 32 13 17 - - 0.0
20/02:30pm -1.9 -10.4 -3.3 90 0.4 NW 32 39 17 21 - - 0.0
20/02:00pm -1.5 -9.6 -3.5 86 0.7 NNW 30 33 16 18 - - 0.0
20/01:30pm -1.6 -8.7 -4.3 82 0.9 NW 24 28 13 15 - - 0.0
20/01:00pm -1.3 -8.5 -5.7 72 1.5 NW 24 28 13 15 - - 0.0
20/12:30pm -0.8 -7.2 -6.7 64 2.0 WNW 19 24 10 13 - - 0.0
20/12:00pm -0.9 -7.4 -6.0 68 1.8 NW 20 24 11 13 1014.4 1016.5 0.0
20/11:30am -1.1 -7.5 -7.0 64 2.0 WNW 19 24 10 13 1014.8 1016.8 0.0
20/11:00am -1.2 -7.4 -8.8 56 2.4 WNW 17 22 9 12 1015.0 1017.1 0.0
20/10:30am -1.6 -8.8 -9.9 53 2.5 WNW 22 30 12 16 1015.0 1017.1 0.0
20/10:00am -2.3 -10.3 -16.3 33 3.6 WNW 24 30 13 16 1015.1 1017.2 0.0
20/09:30am -2.7 -11.0 -15.7 36 3.3 WNW 26 30 14 16 1015.1 1017.2 0.0
20/09:00am -3.0 -11.3 -14.4 41 3.0 WNW 26 28 14 15 1014.9 1017.0 0.0
20/08:30am -2.8 -10.8 -15.8 36 3.3 WNW 24 26 13 14 1014.8 1016.8 0.0
20/08:00am -2.9 -9.6 -16.9 33 3.4 W 17 20 9 11 1014.4 1016.5 0.0
20/07:30am -3.8 -11.7 -15.4 40 2.9 WNW 24 28 13 15 - - 0.0
20/07:00am -3.9 -11.5 -15.8 39 2.9 WNW 22 30 12 16 - - 0.0
20/06:30am -3.5 -11.1 -15.7 38 3.0 WNW 22 35 12 19 - - 0.0
20/06:00am -3.9 -9.0 -15.8 39 2.9 W 9 20 5 11 - - 0.0
20/05:30am -2.9 -9.5 -15.8 36 3.3 WSW 17 28 9 15 - - 0.0
20/05:00am -3.4 -11.0 -15.6 38 3.1 W 22 30 12 16 - - 0.0
20/04:30am -3.3 -12.1 -18.0 31 3.5 WNW 28 33 15 18 - - 0.0
20/04:00am -3.8 -12.7 -19.6 28 3.5 WNW 28 33 15 18 - - 0.0
20/03:30am -3.4 -12.7 -20.6 25 3.8 WNW 30 35 16 19 - - 0.0
20/03:00am -3.5 -12.8 -20.2 26 3.7 WNW 30 37 16 20 - - 0.0
20/02:30am -3.7 -13.0 -19.5 28 3.5 WNW 30 37 16 20 - - 0.0
20/02:00am -2.8 -13.1 -21.0 23 4.0 WNW 35 41 19 22 - - 0.0
20/01:30am -3.8 -13.1 -20.4 26 3.6 WNW 30 37 16 20 - - 0.0
20/01:00am -3.9 -13.6 -21.4 24 3.7 WNW 32 35 17 19 - - 0.0
20/12:30am -3.3 -13.6 -21.9 22 4.0 WNW 35 43 19 23 - - 0.0
20/12:00am -3.6 -13.3 -21.2 24 3.8 WNW 32 39 17 21 - - 0.0
 
Date/Time
EST
Temp
°C
App
Temp
°C
Dew
Point
°C
Rel
Hum
%
Delta-T
°C
Wind Press
QNH
hPa
Press
MSL
hPa
Rain since
9am
mm
Dir  Spd
km/h
Gust
km/h
Spd
kts
Gust
kts
19/11:30pm -3.4 -12.0 -22.0 22 3.9 WNW 26 32 14 17 1014.3 1016.3 0.0
19/11:00pm -3.4 -11.6 -22.0 22 4.0 WNW 24 30 13 16 1014.3 1016.3 0.0
19/10:30pm -3.6 -11.5 -22.7 21 4.0 WNW 22 26 12 14 1014.3 1016.3 0.0
19/10:00pm -4.1 -9.1 -22.6 22 3.8 W 7 11 4 6 1014.5 1016.6 0.0
19/09:30pm -4.2 -9.2 -21.2 25 3.6 W 7 11 4 6 1014.5 1016.6 0.0
19/09:00pm -3.3 -9.4 -21.4 23 3.9 W 13 20 7 11 1014.4 1016.5 0.0
19/08:30pm -2.7 -11.3 -21.9 21 4.2 NW 26 32 14 17 - - 0.0
19/08:00pm -2.9 -11.1 -22.7 20 4.2 NW 24 30 13 16 - - 0.0
19/07:30pm -3.2 -10.6 -21.8 22 4.0 WNW 20 20 11 11 - - 0.0
19/07:00pm -3.5 -10.7 -21.6 23 3.9 WNW 19 20 10 11 - - 0.0
19/06:30pm -3.7 -11.1 -20.8 25 3.7 WNW 20 22 11 12 - - 0.0
19/06:00pm -3.6 -11.0 -19.8 27 3.6 WNW 20 22 11 12 - - 0.0
19/05:30pm -3.2 -10.4 -19.1 28 3.7 NW 19 22 10 12 - - 0.0

Other formats

Comma delimited format used in spreadsheet applications
http://www.bom.gov.au/fwo/IDN60801/IDN60801.95909.axf

JavaScript Object Notation format (JSON) in row-major order
http://www.bom.gov.au/fwo/IDN60801/IDN60801.95909.json

Data quality

Most of these data are generated automatically and are frequently updated. Quality checks on data are not normally performed. It is possible for incorrect values to appear. Refer to information at About Latest Weather Observations and please check the disclaimer before using these data.